sensor_id;sensor_type;location;lat;lon;timestamp;pressure;altitude;pressure_sealevel;temperature;humidity
63556;BME280;49700;48.072;7.800;2022-12-18T00:02:12;100627.03;;;-4.55;76.93
63556;BME280;49700;48.072;7.800;2022-12-18T00:04:37;100631.34;;;-4.52;76.53
63556;BME280;49700;48.072;7.800;2022-12-18T00:07:02;100632.22;;;-4.50;76.73
63556;BME280;49700;48.072;7.800;2022-12-18T00:09:28;100640.81;;;-4.48;76.59
63556;BME280;49700;48.072;7.800;2022-12-18T00:11:53;100636.53;;;-4.48;76.80
63556;BME280;49700;48.072;7.800;2022-12-18T00:14:19;100648.53;;;-4.45;76.77
63556;BME280;49700;48.072;7.800;2022-12-18T00:16:45;100651.97;;;-4.45;76.55
63556;BME280;49700;48.072;7.800;2022-12-18T00:19:12;100661.38;;;-4.45;77.05
63556;BME280;49700;48.072;7.800;2022-12-18T00:21:37;100652.00;;;-4.41;76.44
63556;BME280;49700;48.072;7.800;2022-12-18T00:24:03;100653.72;;;-4.40;76.86
63556;BME280;49700;48.072;7.800;2022-12-18T00:26:30;100657.16;;;-4.40;76.67
63556;BME280;49700;48.072;7.800;2022-12-18T00:29:01;100659.69;;;-4.41;76.57
63556;BME280;49700;48.072;7.800;2022-12-18T00:31:29;100653.63;;;-4.48;76.68
63556;BME280;49700;48.072;7.800;2022-12-18T00:33:55;100657.84;;;-4.52;76.75
63556;BME280;49700;48.072;7.800;2022-12-18T00:36:30;100656.00;;;-4.60;76.71
63556;BME280;49700;48.072;7.800;2022-12-18T00:38:58;100667.09;;;-4.61;77.01
63556;BME280;49700;48.072;7.800;2022-12-18T00:41:24;100671.31;;;-4.67;76.98
63556;BME280;49700;48.072;7.800;2022-12-18T00:44:10;100674.69;;;-4.69;76.85
63556;BME280;49700;48.072;7.800;2022-12-18T00:46:36;100663.56;;;-4.68;77.14
63556;BME280;49700;48.072;7.800;2022-12-18T00:49:02;100663.63;;;-4.67;77.05
63556;BME280;49700;48.072;7.800;2022-12-18T00:51:27;100667.03;;;-4.66;76.94
63556;BME280;49700;48.072;7.800;2022-12-18T00:53:53;100665.34;;;-4.64;77.08
63556;BME280;49700;48.072;7.800;2022-12-18T00:56:22;100668.75;;;-4.67;77.19
63556;BME280;49700;48.072;7.800;2022-12-18T00:58:47;100668.75;;;-4.67;77.13
63556;BME280;49700;48.072;7.800;2022-12-18T01:01:13;100666.19;;;-4.67;76.80
63556;BME280;49700;48.072;7.800;2022-12-18T01:03:39;100672.13;;;-4.68;77.30
63556;BME280;49700;48.072;7.800;2022-12-18T01:06:06;100659.25;;;-4.71;76.78
63556;BME280;49700;48.072;7.800;2022-12-18T01:08:32;100657.47;;;-4.76;76.52
63556;BME280;49700;48.072;7.800;2022-12-18T01:10:57;100663.41;;;-4.80;76.90
63556;BME280;49700;48.072;7.800;2022-12-18T01:13:24;100667.59;;;-4.84;77.20
63556;BME280;49700;48.072;7.800;2022-12-18T01:15:50;100674.44;;;-4.86;77.28
63556;BME280;49700;48.072;7.800;2022-12-18T01:18:16;100676.94;;;-4.87;76.83
63556;BME280;49700;48.072;7.800;2022-12-18T01:20:41;100676.13;;;-4.85;77.09
63556;BME280;49700;48.072;7.800;2022-12-18T01:23:07;100683.00;;;-4.82;77.04
63556;BME280;49700;48.072;7.800;2022-12-18T01:25:33;100685.66;;;-4.78;77.06
63556;BME280;49700;48.072;7.800;2022-12-18T01:27:58;100699.38;;;-4.73;77.24
63556;BME280;49700;48.072;7.800;2022-12-18T01:30:24;100689.16;;;-4.71;76.96
63556;BME280;49700;48.072;7.800;2022-12-18T01:32:51;100678.97;;;-4.68;77.17
63556;BME280;49700;48.072;7.800;2022-12-18T01:35:17;100671.31;;;-4.65;77.06
63556;BME280;49700;48.072;7.800;2022-12-18T01:37:42;100685.88;;;-4.64;76.89
63556;BME280;49700;48.072;7.800;2022-12-18T01:40:08;100679.81;;;-4.68;76.47
63556;BME280;49700;48.072;7.800;2022-12-18T01:42:34;100686.66;;;-4.68;76.51
63556;BME280;49700;48.072;7.800;2022-12-18T01:47:53;100682.41;;;-4.66;77.09
63556;BME280;49700;48.072;7.800;2022-12-18T01:50:27;100685.88;;;-4.64;76.89
63556;BME280;49700;48.072;7.800;2022-12-18T01:55:25;100692.63;;;-4.68;76.21
63556;BME280;49700;48.072;7.800;2022-12-18T01:57:54;100698.59;;;-4.69;76.63
63556;BME280;49700;48.072;7.800;2022-12-18T02:00:21;100706.25;;;-4.70;76.50
63556;BME280;49700;48.072;7.800;2022-12-18T02:02:49;100703.66;;;-4.73;76.33
63556;BME280;49700;48.072;7.800;2022-12-18T02:05:35;100704.47;;;-4.76;76.42
63556;BME280;49700;48.072;7.800;2022-12-18T02:11:11;100688.22;;;-4.78;76.81
63556;BME280;49700;48.072;7.800;2022-12-18T02:13:46;100703.66;;;-4.73;77.03
63556;BME280;49700;48.072;7.800;2022-12-18T02:18:58;100720.63;;;-4.80;76.58
63556;BME280;49700;48.072;7.800;2022-12-18T02:21:43;100713.75;;;-4.82;76.42
63556;BME280;49700;48.072;7.800;2022-12-18T02:24:34;100722.25;;;-4.85;76.82
63556;BME280;49700;48.072;7.800;2022-12-18T02:27:03;100723.97;;;-4.84;76.62
63556;BME280;49700;48.072;7.800;2022-12-18T02:29:37;100711.28;;;-4.78;76.63
63556;BME280;49700;48.072;7.800;2022-12-18T02:32:09;100704.53;;;-4.71;76.67
63556;BME280;49700;48.072;7.800;2022-12-18T02:34:39;100699.50;;;-4.67;76.92
63556;BME280;49700;48.072;7.800;2022-12-18T02:37:10;100696.94;;;-4.65;76.18
63556;BME280;49700;48.072;7.800;2022-12-18T02:39:40;100700.34;;;-4.66;76.12
63556;BME280;49700;48.072;7.800;2022-12-18T02:42:08;100703.78;;;-4.67;76.19
63556;BME280;49700;48.072;7.800;2022-12-18T02:44:42;100701.13;;;-4.72;76.33
63556;BME280;49700;48.072;7.800;2022-12-18T02:47:10;100699.34;;;-4.76;76.15
63556;BME280;49700;48.072;7.800;2022-12-18T02:49:58;100697.53;;;-4.83;75.72
63556;BME280;49700;48.072;7.800;2022-12-18T02:57:46;100705.84;;;-4.95;76.14
63556;BME280;49700;48.072;7.800;2022-12-18T03:00:27;100688.78;;;-4.94;76.48
63556;BME280;49700;48.072;7.800;2022-12-18T03:05:25;100699.91;;;-4.94;76.20
63556;BME280;49700;48.072;7.800;2022-12-18T03:07:57;100701.59;;;-4.94;76.74
63556;BME280;49700;48.072;7.800;2022-12-18T03:10:30;100702.44;;;-4.95;77.05
63556;BME280;49700;48.072;7.800;2022-12-18T03:13:04;100701.50;;;-5.00;76.43
63556;BME280;49700;48.072;7.800;2022-12-18T03:15:45;100697.84;;;-5.15;76.46
63556;BME280;49700;48.072;7.800;2022-12-18T03:18:17;100701.16;;;-5.20;76.30
63556;BME280;49700;48.072;7.800;2022-12-18T03:20:45;100698.66;;;-5.17;76.64
63556;BME280;49700;48.072;7.800;2022-12-18T03:23:20;100699.59;;;-5.12;77.20
63556;BME280;49700;48.072;7.800;2022-12-18T03:25:50;100701.41;;;-5.06;77.01
63556;BME280;49700;48.072;7.800;2022-12-18T03:28:21;100708.19;;;-5.08;76.53
63556;BME280;49700;48.072;7.800;2022-12-18T03:30:55;100705.63;;;-5.08;76.21
63556;BME280;49700;48.072;7.800;2022-12-18T03:33:25;100703.91;;;-5.08;76.75
63556;BME280;49700;48.072;7.800;2022-12-18T03:35:54;100703.88;;;-5.13;76.58
63556;BME280;49700;48.072;7.800;2022-12-18T03:38:19;100708.03;;;-5.18;76.38
63556;BME280;49700;48.072;7.800;2022-12-18T03:41:06;100699.41;;;-5.23;76.24
63556;BME280;49700;48.072;7.800;2022-12-18T03:43:59;100699.25;;;-5.30;76.77
63556;BME280;49700;48.072;7.800;2022-12-18T03:46:47;100696.59;;;-5.37;76.38
63556;BME280;49700;48.072;7.800;2022-12-18T03:51:52;100711.09;;;-5.37;76.78
63556;BME280;49700;48.072;7.800;2022-12-18T03:54:18;100706.84;;;-5.37;77.04
63556;BME280;49700;48.072;7.800;2022-12-18T03:56:58;100716.34;;;-5.31;76.95
63556;BME280;49700;48.072;7.800;2022-12-18T03:59:27;100710.41;;;-5.27;76.73
63556;BME280;49700;48.072;7.800;2022-12-18T04:01:56;100709.66;;;-5.23;76.67
63556;BME280;49700;48.072;7.800;2022-12-18T04:04:25;100703.72;;;-5.19;76.66
63556;BME280;49700;48.072;7.800;2022-12-18T04:06:53;100708.94;;;-5.14;76.46
63556;BME280;49700;48.072;7.800;2022-12-18T04:09:19;100702.91;;;-5.18;76.60
63556;BME280;49700;48.072;7.800;2022-12-18T04:11:47;100704.63;;;-5.18;76.18
63556;BME280;49700;48.072;7.800;2022-12-18T04:14:14;100708.03;;;-5.18;76.64
63556;BME280;49700;48.072;7.800;2022-12-18T04:16:40;100702.88;;;-5.21;76.01
63556;BME280;49700;48.072;7.800;2022-12-18T04:19:09;100701.16;;;-5.20;76.50
63556;BME280;49700;48.072;7.800;2022-12-18T04:21:38;100704.53;;;-5.21;76.57
63556;BME280;49700;48.072;7.800;2022-12-18T04:24:04;100701.91;;;-5.24;76.20
63556;BME280;49700;48.072;7.800;2022-12-18T04:26:32;100700.25;;;-5.24;76.07
63556;BME280;49700;48.072;7.800;2022-12-18T04:29:12;100695.81;;;-5.32;75.94
63556;BME280;49700;48.072;7.800;2022-12-18T04:31:38;100699.16;;;-5.37;76.09
63556;BME280;49700;48.072;7.800;2022-12-18T04:34:04;100701.78;;;-5.34;76.47
63556;BME280;49700;48.072;7.800;2022-12-18T04:36:35;100702.72;;;-5.27;76.63
63556;BME280;49700;48.072;7.800;2022-12-18T04:39:01;100690.78;;;-5.28;75.94
63556;BME280;49700;48.072;7.800;2022-12-18T04:41:26;100699.16;;;-5.35;75.90
63556;BME280;49700;48.072;7.800;2022-12-18T04:43:52;100698.22;;;-5.40;76.05
63556;BME280;49700;48.072;7.800;2022-12-18T04:46:18;100697.34;;;-5.42;76.11
63556;BME280;49700;48.072;7.800;2022-12-18T04:48:45;100694.84;;;-5.39;76.41
63556;BME280;49700;48.072;7.800;2022-12-18T04:51:11;100707.44;;;-5.48;75.67
63556;BME280;49700;48.072;7.800;2022-12-18T04:53:38;100709.84;;;-5.58;75.49
63556;BME280;49700;48.072;7.800;2022-12-18T04:58:30;100701.91;;;-5.70;76.13
63556;BME280;49700;48.072;7.800;2022-12-18T05:00:55;100689.97;;;-5.71;76.56
63556;BME280;49700;48.072;7.800;2022-12-18T05:03:21;100686.66;;;-5.67;76.78
63556;BME280;49700;48.072;7.800;2022-12-18T05:05:49;100702.00;;;-5.67;76.76
63556;BME280;49700;48.072;7.800;2022-12-18T05:08:15;100685.81;;;-5.66;76.57
63556;BME280;49700;48.072;7.800;2022-12-18T05:10:41;100692.69;;;-5.63;76.29
63556;BME280;49700;48.072;7.800;2022-12-18T05:13:06;100700.34;;;-5.63;76.27
63556;BME280;49700;48.072;7.800;2022-12-18T05:15:32;100692.63;;;-5.65;76.68
63556;BME280;49700;48.072;7.800;2022-12-18T05:17:59;100690.03;;;-5.68;76.12
63556;BME280;49700;48.072;7.800;2022-12-18T05:20:25;100689.06;;;-5.73;76.78
63556;BME280;49700;48.072;7.800;2022-12-18T05:22:51;100695.03;;;-5.74;76.48
63556;BME280;49700;48.072;7.800;2022-12-18T05:25:17;100695.03;;;-5.74;76.52
63556;BME280;49700;48.072;7.800;2022-12-18T05:27:42;100690.81;;;-5.70;76.93
63556;BME280;49700;48.072;7.800;2022-12-18T05:30:08;100696.94;;;-5.64;76.74
63556;BME280;49700;48.072;7.800;2022-12-18T05:32:34;100691.03;;;-5.61;76.36
63556;BME280;49700;48.072;7.800;2022-12-18T05:35:00;100685.97;;;-5.57;76.97
63556;BME280;49700;48.072;7.800;2022-12-18T05:37:25;100681.78;;;-5.51;76.30
63556;BME280;49700;48.072;7.800;2022-12-18T05:39:50;100689.63;;;-5.44;76.38
63556;BME280;49700;48.072;7.800;2022-12-18T05:42:16;100689.69;;;-5.41;76.54
63556;BME280;49700;48.072;7.800;2022-12-18T05:44:43;100690.47;;;-5.43;75.67
63556;BME280;49700;48.072;7.800;2022-12-18T05:47:08;100681.94;;;-5.45;75.91
63556;BME280;49700;48.072;7.800;2022-12-18T05:49:34;100680.13;;;-5.49;75.59
63556;BME280;49700;48.072;7.800;2022-12-18T05:51:59;100703.09;;;-5.54;75.75
63556;BME280;49700;48.072;7.800;2022-12-18T05:54:27;100695.38;;;-5.56;76.21
63556;BME280;49700;48.072;7.800;2022-12-18T05:56:52;100704.81;;;-5.53;76.00
63556;BME280;49700;48.072;7.800;2022-12-18T05:59:17;100703.13;;;-5.51;76.30
63556;BME280;49700;48.072;7.800;2022-12-18T06:01:43;100700.63;;;-5.49;75.88
63556;BME280;49700;48.072;7.800;2022-12-18T06:04:08;100703.97;;;-5.53;75.59
63556;BME280;49700;48.072;7.800;2022-12-18T06:06:34;100707.28;;;-5.58;75.52
63556;BME280;49700;48.072;7.800;2022-12-18T06:08:59;100706.44;;;-5.58;75.57
63556;BME280;49700;48.072;7.800;2022-12-18T06:11:26;100709.81;;;-5.59;76.00
63556;BME280;49700;48.072;7.800;2022-12-18T06:13:53;100714.91;;;-5.59;75.71
63556;BME280;49700;48.072;7.800;2022-12-18T06:16:19;100726.06;;;-5.59;75.53
63556;BME280;49700;48.072;7.800;2022-12-18T06:18:44;100724.19;;;-5.66;75.55
63556;BME280;49700;48.072;7.800;2022-12-18T06:21:10;100729.25;;;-5.69;76.02
63556;BME280;49700;48.072;7.800;2022-12-18T06:23:36;100732.72;;;-5.67;75.71
63556;BME280;49700;48.072;7.800;2022-12-18T06:26:07;100745.50;;;-5.67;75.54
63556;BME280;49700;48.072;7.800;2022-12-18T06:28:33;100747.19;;;-5.67;75.81
63556;BME280;49700;48.072;7.800;2022-12-18T06:30:58;100748.81;;;-5.71;75.28
63556;BME280;49700;48.072;7.800;2022-12-18T06:33:26;100755.44;;;-5.81;74.88
63556;BME280;49700;48.072;7.800;2022-12-18T06:35:53;100760.28;;;-5.96;74.73
63556;BME280;49700;48.072;7.800;2022-12-18T06:38:19;100755.81;;;-6.05;75.05
63556;BME280;49700;48.072;7.800;2022-12-18T06:40:44;100750.63;;;-6.08;75.23
63556;BME280;49700;48.072;7.800;2022-12-18T06:43:09;100762.53;;;-6.10;75.41
63556;BME280;49700;48.072;7.800;2022-12-18T06:45:35;100768.63;;;-6.05;75.57
63556;BME280;49700;48.072;7.800;2022-12-18T06:48:01;100774.59;;;-6.03;75.54
63556;BME280;49700;48.072;7.800;2022-12-18T06:50:26;100764.47;;;-5.98;75.29
63556;BME280;49700;48.072;7.800;2022-12-18T06:52:51;100767.09;;;-5.95;75.32
63556;BME280;49700;48.072;7.800;2022-12-18T06:55:17;100766.19;;;-5.97;74.99
63556;BME280;49700;48.072;7.800;2022-12-18T06:57:43;100774.75;;;-5.96;75.34
63556;BME280;49700;48.072;7.800;2022-12-18T07:00:08;100775.63;;;-5.96;75.23
63556;BME280;49700;48.072;7.800;2022-12-18T07:02:34;100772.13;;;-5.99;75.36
63556;BME280;49700;48.072;7.800;2022-12-18T07:05:00;100777.22;;;-6.01;74.98
63556;BME280;49700;48.072;7.800;2022-12-18T07:07:25;100768.50;;;-6.09;75.39
63556;BME280;49700;48.072;7.800;2022-12-18T07:09:51;100767.66;;;-6.10;75.55
63556;BME280;49700;48.072;7.800;2022-12-18T07:12:16;100766.84;;;-6.07;75.84
63556;BME280;49700;48.072;7.800;2022-12-18T07:14:42;100775.38;;;-6.07;75.78
63556;BME280;49700;48.072;7.800;2022-12-18T07:17:07;100776.28;;;-6.05;75.83
63556;BME280;49700;48.072;7.800;2022-12-18T07:19:33;100774.66;;;-5.99;76.26
63556;BME280;49700;48.072;7.800;2022-12-18T07:21:58;100777.34;;;-5.95;75.52
63556;BME280;49700;48.072;7.800;2022-12-18T07:24:24;100779.97;;;-5.90;75.30
63556;BME280;49700;48.072;7.800;2022-12-18T07:26:49;100787.59;;;-5.92;75.51
63556;BME280;49700;48.072;7.800;2022-12-18T07:29:15;100783.34;;;-5.91;75.82
63556;BME280;49700;48.072;7.800;2022-12-18T07:31:40;100791.06;;;-5.90;75.82
63556;BME280;49700;48.072;7.800;2022-12-18T07:34:10;100798.00;;;-5.86;75.49
63556;BME280;49700;48.072;7.800;2022-12-18T07:36:36;100800.56;;;-5.86;75.34
63556;BME280;49700;48.072;7.800;2022-12-18T07:39:02;100814.16;;;-5.87;75.44
63556;BME280;49700;48.072;7.800;2022-12-18T07:41:27;100812.47;;;-5.86;75.45
63556;BME280;49700;48.072;7.800;2022-12-18T07:43:53;100819.16;;;-5.91;74.78
63556;BME280;49700;48.072;7.800;2022-12-18T07:46:18;100815.66;;;-5.98;75.04
63556;BME280;49700;48.072;7.800;2022-12-18T07:48:44;100809.50;;;-6.06;75.14
63556;BME280;49700;48.072;7.800;2022-12-18T07:51:10;100814.50;;;-6.11;75.07
63556;BME280;49700;48.072;7.800;2022-12-18T07:53:36;100830.63;;;-6.13;75.54
63556;BME280;49700;48.072;7.800;2022-12-18T07:56:05;100829.81;;;-6.12;75.70
63556;BME280;49700;48.072;7.800;2022-12-18T07:58:32;100839.22;;;-6.11;75.53
63556;BME280;49700;48.072;7.800;2022-12-18T08:01:06;100844.31;;;-6.13;75.39
63556;BME280;49700;48.072;7.800;2022-12-18T08:03:32;100846.81;;;-6.14;75.50
63556;BME280;49700;48.072;7.800;2022-12-18T08:06:02;100857.84;;;-6.17;75.40
63556;BME280;49700;48.072;7.800;2022-12-18T08:08:28;100846.75;;;-6.16;75.48
63556;BME280;49700;48.072;7.800;2022-12-18T08:10:54;100842.66;;;-6.09;75.73
63556;BME280;49700;48.072;7.800;2022-12-18T08:13:19;100832.69;;;-5.98;75.61
63556;BME280;49700;48.072;7.800;2022-12-18T08:15:45;100834.56;;;-5.90;75.07
63556;BME280;49700;48.072;7.800;2022-12-18T08:18:10;100833.75;;;-5.87;74.61
63556;BME280;49700;48.072;7.800;2022-12-18T08:20:36;100838.72;;;-5.96;73.65
63556;BME280;49700;48.072;7.800;2022-12-18T08:23:01;100841.19;;;-5.99;74.30
63556;BME280;49700;48.072;7.800;2022-12-18T08:25:26;100841.34;;;-5.93;73.92
63556;BME280;49700;48.072;7.800;2022-12-18T08:27:52;100838.94;;;-5.86;74.43
63556;BME280;49700;48.072;7.800;2022-12-18T08:30:17;100828.84;;;-5.78;73.35
63556;BME280;49700;48.072;7.800;2022-12-18T08:32:43;100828.03;;;-5.75;73.20
63556;BME280;49700;48.072;7.800;2022-12-18T08:35:09;100823.78;;;-5.76;72.64
63556;BME280;49700;48.072;7.800;2022-12-18T08:37:34;100810.91;;;-5.80;72.50
63556;BME280;49700;48.072;7.800;2022-12-18T08:39:59;100805.75;;;-5.81;72.88
63556;BME280;49700;48.072;7.800;2022-12-18T08:42:25;100799.72;;;-5.85;71.87
63556;BME280;49700;48.072;7.800;2022-12-18T08:45:09;100797.81;;;-5.95;71.69
63556;BME280;49700;48.072;7.800;2022-12-18T08:47:34;100802.78;;;-6.01;71.58
63556;BME280;49700;48.072;7.800;2022-12-18T08:50:00;100795.97;;;-6.02;71.92
63556;BME280;49700;48.072;7.800;2022-12-18T08:52:25;100791.06;;;-5.90;72.69
63556;BME280;49700;48.072;7.800;2022-12-18T08:54:51;100779.22;;;-5.45;72.60
63556;BME280;49700;48.072;7.800;2022-12-18T08:57:16;100784.03;;;-4.70;70.39
63556;BME280;49700;48.072;7.800;2022-12-18T08:59:42;100777.66;;;-3.84;68.70
63556;BME280;49700;48.072;7.800;2022-12-18T09:02:10;100779.66;;;-2.86;66.82
63556;BME280;49700;48.072;7.800;2022-12-18T09:04:36;100774.41;;;-1.87;64.96
63556;BME280;49700;48.072;7.800;2022-12-18T09:07:01;100771.28;;;-1.20;63.23
63556;BME280;49700;48.072;7.800;2022-12-18T09:09:27;100764.50;;;-0.81;62.21
63556;BME280;49700;48.072;7.800;2022-12-18T09:11:52;100759.34;;;-0.34;60.59
63556;BME280;49700;48.072;7.800;2022-12-18T09:14:17;100757.56;;;0.05;59.42
63556;BME280;49700;48.072;7.800;2022-12-18T09:16:43;100757.56;;;0.05;58.33
63556;BME280;49700;48.072;7.800;2022-12-18T09:19:09;100762.81;;;-0.47;58.34
63556;BME280;49700;48.072;7.800;2022-12-18T09:21:35;100767.88;;;-1.07;59.51
63556;BME280;49700;48.072;7.800;2022-12-18T09:24:00;100764.25;;;-1.66;60.37
63556;BME280;49700;48.072;7.800;2022-12-18T09:26:26;100778.53;;;-2.18;60.12
63556;BME280;49700;48.072;7.800;2022-12-18T09:28:52;100779.91;;;-2.62;61.02
63556;BME280;49700;48.072;7.800;2022-12-18T09:31:20;100783.81;;;-2.99;61.69
63556;BME280;49700;48.072;7.800;2022-12-18T09:33:46;100787.75;;;-3.32;62.45
63556;BME280;49700;48.072;7.800;2022-12-18T09:36:14;100788.47;;;-3.41;62.82
63556;BME280;49700;48.072;7.800;2022-12-18T09:38:40;100796.84;;;-3.57;62.90
63556;BME280;49700;48.072;7.800;2022-12-18T09:43:52;100804.06;;;-3.94;63.67
63556;BME280;49700;48.072;7.800;2022-12-18T09:46:26;100815.91;;;-4.01;64.00
63556;BME280;49700;48.072;7.800;2022-12-18T09:49:00;100813.22;;;-4.10;63.78
63556;BME280;49700;48.072;7.800;2022-12-18T09:51:33;100814.78;;;-4.19;64.19
63556;BME280;49700;48.072;7.800;2022-12-18T09:54:07;100807.97;;;-4.16;64.22
63556;BME280;49700;48.072;7.800;2022-12-18T09:56:41;100807.97;;;-4.16;64.23
63556;BME280;49700;48.072;7.800;2022-12-18T09:59:18;100806.25;;;-4.17;64.31
63556;BME280;49700;48.072;7.800;2022-12-18T10:01:45;100812.31;;;-4.12;64.66
63556;BME280;49700;48.072;7.800;2022-12-18T10:04:10;100803.94;;;-4.00;64.34
63556;BME280;49700;48.072;7.800;2022-12-18T10:06:44;100805.59;;;-4.04;64.31
63556;BME280;49700;48.072;7.800;2022-12-18T10:09:29;100800.31;;;-4.14;64.75
63556;BME280;49700;48.072;7.800;2022-12-18T10:20:13;100791.13;;;-4.55;66.29
63556;BME280;49700;48.072;7.800;2022-12-18T10:22:48;100773.94;;;-4.60;67.04
63556;BME280;49700;48.072;7.800;2022-12-18T10:27:53;100767.28;;;-4.51;67.17
63556;BME280;49700;48.072;7.800;2022-12-18T10:30:22;100766.38;;;-4.51;67.04
63556;BME280;49700;48.072;7.800;2022-12-18T10:32:48;100772.34;;;-4.52;67.90
63556;BME280;49700;48.072;7.800;2022-12-18T10:35:25;100761.31;;;-4.48;68.42
63556;BME280;49700;48.072;7.800;2022-12-18T10:40:55;100745.50;;;-4.21;68.30
63556;BME280;49700;48.072;7.800;2022-12-18T10:43:26;100751.66;;;-4.08;67.96
63556;BME280;49700;48.072;7.800;2022-12-18T10:48:36;100757.97;;;-3.85;67.64
63556;BME280;49700;48.072;7.800;2022-12-18T10:51:06;100752.09;;;-3.76;67.67
63556;BME280;49700;48.072;7.800;2022-12-18T10:53:34;100741.94;;;-3.65;67.34
63556;BME280;49700;48.072;7.800;2022-12-18T10:56:00;100742.91;;;-3.57;66.90
63556;BME280;49700;48.072;7.800;2022-12-18T10:58:34;100738.72;;;-3.49;67.10
63556;BME280;49700;48.072;7.800;2022-12-18T11:01:14;100729.41;;;-3.42;66.87
63556;BME280;49700;48.072;7.800;2022-12-18T11:03:45;100719.13;;;-3.41;66.73
63556;BME280;49700;48.072;7.800;2022-12-18T11:08:38;100727.88;;;-3.26;66.97
63556;BME280;49700;48.072;7.800;2022-12-18T11:11:07;100721.91;;;-3.19;66.61
63556;BME280;49700;48.072;7.800;2022-12-18T11:13:39;100715.16;;;-3.11;66.58
63556;BME280;49700;48.072;7.800;2022-12-18T11:16:05;100716.91;;;-3.05;66.67
63556;BME280;49700;48.072;7.800;2022-12-18T11:18:35;100719.50;;;-3.04;66.18
63556;BME280;49700;48.072;7.800;2022-12-18T11:21:11;100717.81;;;-3.02;66.30
63556;BME280;49700;48.072;7.800;2022-12-18T11:23:48;100721.25;;;-3.00;66.62
63556;BME280;49700;48.072;7.800;2022-12-18T11:26:14;100712.69;;;-2.97;66.70
63556;BME280;49700;48.072;7.800;2022-12-18T11:31:22;100703.41;;;-2.86;66.66
63556;BME280;49700;48.072;7.800;2022-12-18T11:36:29;100724.06;;;-2.75;66.52
63556;BME280;49700;48.072;7.800;2022-12-18T11:38:59;100739.50;;;-2.74;66.53
63556;BME280;49700;48.072;7.800;2022-12-18T11:41:41;100731.78;;;-2.74;66.76
63556;BME280;49700;48.072;7.800;2022-12-18T11:44:37;100724.06;;;-2.75;66.68
63556;BME280;49700;48.072;7.800;2022-12-18T11:49:49;100709.56;;;-2.64;67.07
63556;BME280;49700;48.072;7.800;2022-12-18T11:54:51;100704.56;;;-2.46;66.61
63556;BME280;49700;48.072;7.800;2022-12-18T11:57:25;100690.88;;;-2.41;66.59
63556;BME280;49700;48.072;7.800;2022-12-18T12:00:15;100699.47;;;-2.36;66.70
63556;BME280;49700;48.072;7.800;2022-12-18T12:03:10;100696.97;;;-2.26;66.59
63556;BME280;49700;48.072;7.800;2022-12-18T12:05:54;100697.88;;;-2.14;66.22
63556;BME280;49700;48.072;7.800;2022-12-18T12:11:50;100691.09;;;-2.03;66.13
63556;BME280;49700;48.072;7.800;2022-12-18T12:16:55;100674.84;;;-1.91;66.41
63556;BME280;49700;48.072;7.800;2022-12-18T12:21:58;100681.75;;;-1.83;66.48
63556;BME280;49700;48.072;7.800;2022-12-18T12:24:49;100679.19;;;-1.78;66.65
63556;BME280;49700;48.072;7.800;2022-12-18T12:27:52;100675.78;;;-1.75;66.70
63556;BME280;49700;48.072;7.800;2022-12-18T12:35:55;100674.94;;;-1.70;66.58
63556;BME280;49700;48.072;7.800;2022-12-18T12:38:40;100667.22;;;-1.67;66.86
63556;BME280;49700;48.072;7.800;2022-12-18T12:41:09;100675.78;;;-1.68;66.68
63556;BME280;49700;48.072;7.800;2022-12-18T12:44:00;100684.38;;;-1.66;67.09
63556;BME280;49700;48.072;7.800;2022-12-18T12:46:26;100690.41;;;-1.64;66.92
63556;BME280;49700;48.072;7.800;2022-12-18T12:48:55;100684.38;;;-1.69;66.76
63556;BME280;49700;48.072;7.800;2022-12-18T12:53:51;100675.78;;;-1.65;66.92
63556;BME280;49700;48.072;7.800;2022-12-18T12:56:20;100675.81;;;-1.62;67.45
63556;BME280;49700;48.072;7.800;2022-12-18T12:58:52;100674.13;;;-1.57;66.99
63556;BME280;49700;48.072;7.800;2022-12-18T13:01:53;100666.38;;;-1.55;66.96
63556;BME280;49700;48.072;7.800;2022-12-18T13:07:01;100660.38;;;-1.59;67.92
63556;BME280;49700;48.072;7.800;2022-12-18T13:09:32;100654.34;;;-1.54;67.93
63556;BME280;49700;48.072;7.800;2022-12-18T13:12:03;100650.06;;;-1.52;67.65
63556;BME280;49700;48.072;7.800;2022-12-18T13:14:48;100645.78;;;-1.49;67.81
63556;BME280;49700;48.072;7.800;2022-12-18T13:17:23;100641.50;;;-1.48;67.70
63556;BME280;49700;48.072;7.800;2022-12-18T13:20:10;100639.78;;;-1.49;68.00
63556;BME280;49700;48.072;7.800;2022-12-18T13:25:04;100639.78;;;-1.46;67.86
63556;BME280;49700;48.072;7.800;2022-12-18T13:28:10;100644.94;;;-1.43;68.13
63556;BME280;49700;48.072;7.800;2022-12-18T13:30:41;100645.78;;;-1.44;67.96
63556;BME280;49700;48.072;7.800;2022-12-18T13:33:38;100642.38;;;-1.42;67.84
63556;BME280;49700;48.072;7.800;2022-12-18T13:36:26;100632.94;;;-1.40;68.09
63556;BME280;49700;48.072;7.800;2022-12-18T13:41:40;100638.94;;;-1.30;68.42
63556;BME280;49700;48.072;7.800;2022-12-18T13:46:51;100632.09;;;-1.23;68.13
63556;BME280;49700;48.072;7.800;2022-12-18T13:49:21;100630.38;;;-1.23;68.47
63556;BME280;49700;48.072;7.800;2022-12-18T13:51:52;100617.47;;;-1.26;68.19
63556;BME280;49700;48.072;7.800;2022-12-18T13:54:28;100623.50;;;-1.27;68.48
63556;BME280;49700;48.072;7.800;2022-12-18T13:56:55;100619.19;;;-1.28;68.42
63556;BME280;49700;48.072;7.800;2022-12-18T13:59:35;100626.91;;;-1.33;68.32
63556;BME280;49700;48.072;7.800;2022-12-18T14:02:16;100614.88;;;-1.34;68.63
63556;BME280;49700;48.072;7.800;2022-12-18T14:04:45;100625.22;;;-1.29;68.62
63556;BME280;49700;48.072;7.800;2022-12-18T14:07:14;100621.78;;;-1.26;68.74
63556;BME280;49700;48.072;7.800;2022-12-18T14:09:43;100620.91;;;-1.24;68.79
63556;BME280;49700;48.072;7.800;2022-12-18T14:12:23;100613.16;;;-1.22;68.83
63556;BME280;49700;48.072;7.800;2022-12-18T14:18:01;100614.91;;;-1.21;69.08
63556;BME280;49700;48.072;7.800;2022-12-18T14:20:29;100618.31;;;-1.22;68.94
63556;BME280;49700;48.072;7.800;2022-12-18T14:22:57;100617.47;;;-1.23;69.07
63556;BME280;49700;48.072;7.800;2022-12-18T14:25:25;100611.47;;;-1.23;69.28
63556;BME280;49700;48.072;7.800;2022-12-18T14:28:02;100612.31;;;-1.26;69.09
63556;BME280;49700;48.072;7.800;2022-12-18T14:30:35;100616.59;;;-1.31;69.19